sensor_id;sensor_type;location;lat;lon;timestamp;pressure;altitude;pressure_sealevel;temperature;humidity
81704;BME280;71117;52.352;4.808;2023-08-01T00:01:09;99949.56;;;16.20;82.25
81704;BME280;71117;52.352;4.808;2023-08-01T00:03:34;99948.69;;;16.20;82.27
81704;BME280;71117;52.352;4.808;2023-08-01T00:05:59;99938.13;;;16.17;81.88
81704;BME280;71117;52.352;4.808;2023-08-01T00:08:25;99936.28;;;16.19;81.96
81704;BME280;71117;52.352;4.808;2023-08-01T00:10:50;99932.88;;;16.10;82.39
81704;BME280;71117;52.352;4.808;2023-08-01T00:13:15;99924.97;;;16.07;81.88
81704;BME280;71117;52.352;4.808;2023-08-01T00:15:41;99935.03;;;15.92;82.85
81704;BME280;71117;52.352;4.808;2023-08-01T00:18:06;99927.22;;;15.82;83.04
81704;BME280;71117;52.352;4.808;2023-08-01T00:20:31;99921.94;;;15.81;83.23
81704;BME280;71117;52.352;4.808;2023-08-01T00:22:57;99918.47;;;15.76;83.13
81704;BME280;71117;52.352;4.808;2023-08-01T00:25:22;99917.66;;;15.72;83.21
81704;BME280;71117;52.352;4.808;2023-08-01T00:27:47;99916.69;;;15.78;83.00
81704;BME280;71117;52.352;4.808;2023-08-01T00:30:13;99913.34;;;15.67;83.77
81704;BME280;71117;52.352;4.808;2023-08-01T00:32:38;99902.00;;;15.52;84.33
81704;BME280;71117;52.352;4.808;2023-08-01T00:35:04;99903.81;;;15.52;84.24
81704;BME280;71117;52.352;4.808;2023-08-01T00:37:30;99902.97;;;15.50;83.98
81704;BME280;71117;52.352;4.808;2023-08-01T00:39:55;99894.94;;;15.51;83.94
81704;BME280;71117;52.352;4.808;2023-08-01T00:42:20;99898.50;;;15.50;83.59
81704;BME280;71117;52.352;4.808;2023-08-01T00:44:46;99908.22;;;15.53;83.92
81704;BME280;71117;52.352;4.808;2023-08-01T00:47:13;99898.44;;;15.55;83.90
81704;BME280;71117;52.352;4.808;2023-08-01T00:49:39;99891.06;;;15.71;82.50
81704;BME280;71117;52.352;4.808;2023-08-01T00:52:05;99884.81;;;15.73;83.04
81704;BME280;71117;52.352;4.808;2023-08-01T00:54:31;99885.66;;;15.75;82.64
81704;BME280;71117;52.352;4.808;2023-08-01T00:57:04;99878.59;;;15.74;82.83
81704;BME280;71117;52.352;4.808;2023-08-01T00:59:29;99874.09;;;15.76;82.88
81704;BME280;71117;52.352;4.808;2023-08-01T01:01:55;99870.63;;;15.71;83.48
81704;BME280;71117;52.352;4.808;2023-08-01T01:04:21;99872.50;;;15.68;83.15
81704;BME280;71117;52.352;4.808;2023-08-01T01:09:21;99868.84;;;15.73;82.90
81704;BME280;71117;52.352;4.808;2023-08-01T01:11:47;99870.44;;;15.82;82.57
81704;BME280;71117;52.352;4.808;2023-08-01T01:14:12;99869.44;;;15.87;81.97
81704;BME280;71117;52.352;4.808;2023-08-01T01:16:38;99868.25;;;16.02;81.69
81704;BME280;71117;52.352;4.808;2023-08-01T01:19:07;99864.69;;;16.03;81.34
81704;BME280;71117;52.352;4.808;2023-08-01T01:21:38;99862.97;;;15.99;82.21
81704;BME280;71117;52.352;4.808;2023-08-01T01:24:05;99859.34;;;16.03;81.77
81704;BME280;71117;52.352;4.808;2023-08-01T01:26:32;99858.41;;;16.07;81.21
81704;BME280;71117;52.352;4.808;2023-08-01T01:28:59;99863.50;;;16.18;80.12
81704;BME280;71117;52.352;4.808;2023-08-01T01:31:25;99860.88;;;16.17;80.40
81704;BME280;71117;52.352;4.808;2023-08-01T01:33:53;99867.81;;;16.24;80.78
81704;BME280;71117;52.352;4.808;2023-08-01T01:36:19;99864.28;;;16.22;80.45
81704;BME280;71117;52.352;4.808;2023-08-01T01:38:44;99858.13;;;16.20;80.83
81704;BME280;71117;52.352;4.808;2023-08-01T01:41:10;99861.53;;;16.26;80.92
81704;BME280;71117;52.352;4.808;2023-08-01T01:43:36;99867.50;;;16.39;79.84
81704;BME280;71117;52.352;4.808;2023-08-01T01:46:03;99870.03;;;16.44;79.11
81704;BME280;71117;52.352;4.808;2023-08-01T01:48:28;99866.59;;;16.40;78.96
81704;BME280;71117;52.352;4.808;2023-08-01T01:50:53;99871.97;;;16.37;77.85
81704;BME280;71117;52.352;4.808;2023-08-01T01:53:18;99860.50;;;16.33;78.30
81704;BME280;71117;52.352;4.808;2023-08-01T01:55:44;99869.53;;;16.26;77.44
81704;BME280;71117;52.352;4.808;2023-08-01T01:58:09;99867.88;;;16.22;76.83
81704;BME280;71117;52.352;4.808;2023-08-01T02:00:34;99860.84;;;16.18;75.71
81704;BME280;71117;52.352;4.808;2023-08-01T02:03:00;99850.19;;;16.18;76.27
81704;BME280;71117;52.352;4.808;2023-08-01T02:05:28;99858.22;;;16.15;75.28
81704;BME280;71117;52.352;4.808;2023-08-01T02:07:53;99859.97;;;16.16;75.08
81704;BME280;71117;52.352;4.808;2023-08-01T02:10:19;99851.28;;;16.08;76.52
81704;BME280;71117;52.352;4.808;2023-08-01T02:12:44;99851.22;;;16.11;75.81
81704;BME280;71117;52.352;4.808;2023-08-01T02:15:09;99846.88;;;16.07;76.80
81704;BME280;71117;52.352;4.808;2023-08-01T02:17:35;99847.03;;;15.98;77.95
81704;BME280;71117;52.352;4.808;2023-08-01T02:20:00;99841.72;;;15.98;78.30
81704;BME280;71117;52.352;4.808;2023-08-01T02:22:25;99830.16;;;15.99;78.29
81704;BME280;71117;52.352;4.808;2023-08-01T02:24:51;99827.53;;;15.97;79.00
81704;BME280;71117;52.352;4.808;2023-08-01T02:27:17;99828.53;;;15.92;79.70
81704;BME280;71117;52.352;4.808;2023-08-01T02:29:42;99833.81;;;15.95;79.39
81704;BME280;71117;52.352;4.808;2023-08-01T02:32:08;99835.63;;;15.93;79.97
81704;BME280;71117;52.352;4.808;2023-08-01T02:34:33;99831.16;;;15.93;80.14
81704;BME280;71117;52.352;4.808;2023-08-01T02:36:58;99844.56;;;15.90;80.31
81704;BME280;71117;52.352;4.808;2023-08-01T02:39:24;99841.91;;;15.90;81.04
81704;BME280;71117;52.352;4.808;2023-08-01T02:41:49;99844.50;;;15.92;80.73
81704;BME280;71117;52.352;4.808;2023-08-01T02:44:15;99837.47;;;15.89;81.57
81704;BME280;71117;52.352;4.808;2023-08-01T02:46:40;99846.38;;;15.86;81.71
81704;BME280;71117;52.352;4.808;2023-08-01T02:49:06;99851.47;;;15.99;80.89
81704;BME280;71117;52.352;4.808;2023-08-01T02:51:31;99845.22;;;16.01;80.77
81704;BME280;71117;52.352;4.808;2023-08-01T02:53:56;99839.75;;;16.07;80.07
81704;BME280;71117;52.352;4.808;2023-08-01T02:56:22;99831.91;;;16.01;80.43
81704;BME280;71117;52.352;4.808;2023-08-01T02:58:47;99841.44;;;16.11;79.15
81704;BME280;71117;52.352;4.808;2023-08-01T03:01:12;99839.56;;;16.17;78.82
81704;BME280;71117;52.352;4.808;2023-08-01T03:03:38;99840.34;;;16.20;79.48
81704;BME280;71117;52.352;4.808;2023-08-01T03:06:04;99839.44;;;16.23;79.19
81704;BME280;71117;52.352;4.808;2023-08-01T03:08:29;99834.03;;;16.26;79.59
81704;BME280;71117;52.352;4.808;2023-08-01T03:10:54;99830.44;;;16.27;79.08
81704;BME280;71117;52.352;4.808;2023-08-01T03:13:20;99834.03;;;16.26;79.46
81704;BME280;71117;52.352;4.808;2023-08-01T03:15:45;99830.47;;;16.25;79.21
81704;BME280;71117;52.352;4.808;2023-08-01T03:18:11;99830.34;;;16.31;79.02
81704;BME280;71117;52.352;4.808;2023-08-01T03:20:36;99835.63;;;16.34;79.08
81704;BME280;71117;52.352;4.808;2023-08-01T03:23:02;99838.44;;;16.27;79.50
81704;BME280;71117;52.352;4.808;2023-08-01T03:25:27;99832.09;;;16.32;78.69
81704;BME280;71117;52.352;4.808;2023-08-01T03:27:53;99827.63;;;16.34;78.55
81704;BME280;71117;52.352;4.808;2023-08-01T03:30:20;99824.09;;;16.32;79.14
81704;BME280;71117;52.352;4.808;2023-08-01T03:32:46;99832.00;;;16.37;78.46
81704;BME280;71117;52.352;4.808;2023-08-01T03:35:11;99835.53;;;16.39;79.15
81704;BME280;71117;52.352;4.808;2023-08-01T03:37:39;99829.28;;;16.40;79.30
81704;BME280;71117;52.352;4.808;2023-08-01T03:40:05;99832.72;;;16.44;79.16
81704;BME280;71117;52.352;4.808;2023-08-01T03:42:34;99838.19;;;16.39;79.99
81704;BME280;71117;52.352;4.808;2023-08-01T03:44:59;99836.63;;;16.29;80.79
81704;BME280;71117;52.352;4.808;2023-08-01T03:47:24;99847.44;;;16.21;81.67
81704;BME280;71117;52.352;4.808;2023-08-01T03:49:50;99846.81;;;16.08;81.90
81704;BME280;71117;52.352;4.808;2023-08-01T03:52:15;99850.47;;;16.04;81.45
81704;BME280;71117;52.352;4.808;2023-08-01T03:54:40;99838.06;;;16.03;81.50
81704;BME280;71117;52.352;4.808;2023-08-01T03:57:06;99841.72;;;15.98;82.07
81704;BME280;71117;52.352;4.808;2023-08-01T03:59:31;99844.47;;;15.95;81.30
81704;BME280;71117;52.352;4.808;2023-08-01T04:01:56;99852.41;;;15.96;81.62
81704;BME280;71117;52.352;4.808;2023-08-01T04:04:22;99841.72;;;15.98;81.25
81704;BME280;71117;52.352;4.808;2023-08-01T04:06:47;99848.88;;;15.96;81.25
81704;BME280;71117;52.352;4.808;2023-08-01T04:09:13;99839.97;;;15.97;81.36
81704;BME280;71117;52.352;4.808;2023-08-01T04:11:38;99845.34;;;15.94;81.80
81704;BME280;71117;52.352;4.808;2023-08-01T04:14:04;99838.19;;;15.97;81.65
81704;BME280;71117;52.352;4.808;2023-08-01T04:16:29;99843.47;;;16.00;81.13
81704;BME280;71117;52.352;4.808;2023-08-01T04:18:55;99845.38;;;15.92;84.73
81704;BME280;71117;52.352;4.808;2023-08-01T04:21:20;99844.69;;;15.82;84.18
81704;BME280;71117;52.352;4.808;2023-08-01T04:23:45;99838.78;;;15.68;84.77
81704;BME280;71117;52.352;4.808;2023-08-01T04:26:11;99844.22;;;15.60;85.85
81704;BME280;71117;52.352;4.808;2023-08-01T04:28:36;99847.00;;;15.54;85.94
81704;BME280;71117;52.352;4.808;2023-08-01T04:31:01;99849.75;;;15.50;86.33
81704;BME280;71117;52.352;4.808;2023-08-01T04:33:27;99848.84;;;15.51;85.57
81704;BME280;71117;52.352;4.808;2023-08-01T04:35:52;99853.31;;;15.47;86.33
81704;BME280;71117;52.352;4.808;2023-08-01T04:38:18;99844.44;;;15.48;85.18
81704;BME280;71117;52.352;4.808;2023-08-01T04:40:43;99847.09;;;15.50;85.64
81704;BME280;71117;52.352;4.808;2023-08-01T04:43:09;99844.34;;;15.53;84.64
81704;BME280;71117;52.352;4.808;2023-08-01T04:45:35;99846.19;;;15.51;85.25
81704;BME280;71117;52.352;4.808;2023-08-01T04:48:00;99852.31;;;15.54;83.83
81704;BME280;71117;52.352;4.808;2023-08-01T04:50:25;99840.94;;;15.46;84.40
81704;BME280;71117;52.352;4.808;2023-08-01T04:52:51;99848.91;;;15.46;84.25
81704;BME280;71117;52.352;4.808;2023-08-01T04:55:16;99847.06;;;15.51;84.09
81704;BME280;71117;52.352;4.808;2023-08-01T04:57:41;99850.53;;;15.55;83.02
81704;BME280;71117;52.352;4.808;2023-08-01T05:00:09;99849.66;;;15.54;84.04
81704;BME280;71117;52.352;4.808;2023-08-01T05:02:35;99860.19;;;15.60;83.55
81704;BME280;71117;52.352;4.808;2023-08-01T05:05:00;99848.63;;;15.61;83.83
81704;BME280;71117;52.352;4.808;2023-08-01T05:07:25;99845.06;;;15.64;83.39
81704;BME280;71117;52.352;4.808;2023-08-01T05:09:51;99850.38;;;15.64;83.02
81704;BME280;71117;52.352;4.808;2023-08-01T05:12:16;99849.50;;;15.62;82.78
81704;BME280;71117;52.352;4.808;2023-08-01T05:14:41;99845.09;;;15.61;82.92
81704;BME280;71117;52.352;4.808;2023-08-01T05:17:07;99859.41;;;15.54;83.24
81704;BME280;71117;52.352;4.808;2023-08-01T05:19:32;99857.53;;;15.60;82.91
81704;BME280;71117;52.352;4.808;2023-08-01T05:21:57;99850.31;;;15.69;81.79
81704;BME280;71117;52.352;4.808;2023-08-01T05:24:23;99844.16;;;15.65;82.16
81704;BME280;71117;52.352;4.808;2023-08-01T05:26:48;99856.66;;;15.58;82.50
81704;BME280;71117;52.352;4.808;2023-08-01T05:29:13;99855.78;;;15.58;82.24
81704;BME280;71117;52.352;4.808;2023-08-01T05:31:39;99854.06;;;15.55;82.25
81704;BME280;71117;52.352;4.808;2023-08-01T05:34:04;99843.56;;;15.49;81.65
81704;BME280;71117;52.352;4.808;2023-08-01T05:36:29;99846.19;;;15.51;81.21
81704;BME280;71117;52.352;4.808;2023-08-01T05:38:55;99863.81;;;15.56;81.22
81704;BME280;71117;52.352;4.808;2023-08-01T05:41:20;99852.16;;;15.64;81.12
81704;BME280;71117;52.352;4.808;2023-08-01T05:43:48;99861.03;;;15.66;80.70
81704;BME280;71117;52.352;4.808;2023-08-01T05:46:14;99856.50;;;15.69;80.98
81704;BME280;71117;52.352;4.808;2023-08-01T05:48:39;99866.09;;;15.76;80.03
81704;BME280;71117;52.352;4.808;2023-08-01T05:51:05;99866.91;;;15.81;80.32
81704;BME280;71117;52.352;4.808;2023-08-01T05:53:30;99869.44;;;15.87;81.15
81704;BME280;71117;52.352;4.808;2023-08-01T05:55:55;99871.97;;;15.94;80.39
81704;BME280;71117;52.352;4.808;2023-08-01T05:58:21;99878.13;;;15.97;79.85
81704;BME280;71117;52.352;4.808;2023-08-01T06:00:46;99871.97;;;15.94;79.38
81704;BME280;71117;52.352;4.808;2023-08-01T06:03:12;99875.41;;;16.00;78.97
81704;BME280;71117;52.352;4.808;2023-08-01T06:05:37;99883.28;;;16.05;78.79
81704;BME280;71117;52.352;4.808;2023-08-01T06:08:03;99882.63;;;15.94;78.93
81704;BME280;71117;52.352;4.808;2023-08-01T06:10:28;99880.00;;;15.92;78.60
81704;BME280;71117;52.352;4.808;2023-08-01T06:12:54;99886.94;;;15.99;78.87
81704;BME280;71117;52.352;4.808;2023-08-01T06:15:19;99882.19;;;16.17;78.44
81704;BME280;71117;52.352;4.808;2023-08-01T06:17:46;99891.75;;;16.25;78.43
81704;BME280;71117;52.352;4.808;2023-08-01T06:20:11;99891.66;;;16.30;78.45
81704;BME280;71117;52.352;4.808;2023-08-01T06:22:38;99904.97;;;16.30;77.34
81704;BME280;71117;52.352;4.808;2023-08-01T06:25:03;99905.69;;;16.39;77.04
81704;BME280;71117;52.352;4.808;2023-08-01T06:27:29;99895.81;;;16.43;76.87
81704;BME280;71117;52.352;4.808;2023-08-01T06:29:54;99902.59;;;16.58;75.92
81704;BME280;71117;52.352;4.808;2023-08-01T06:32:20;99895.22;;;16.71;75.99
81704;BME280;71117;52.352;4.808;2023-08-01T06:34:45;99893.16;;;16.83;75.29
81704;BME280;71117;52.352;4.808;2023-08-01T06:37:10;99903.41;;;17.00;74.73
81704;BME280;71117;52.352;4.808;2023-08-01T06:39:36;99895.22;;;17.09;74.26
81704;BME280;71117;52.352;4.808;2023-08-01T06:42:01;99899.47;;;17.18;74.17
81704;BME280;71117;52.352;4.808;2023-08-01T06:44:26;99894.19;;;17.15;73.92
81704;BME280;71117;52.352;4.808;2023-08-01T06:46:52;99893.31;;;17.14;73.58
81704;BME280;71117;52.352;4.808;2023-08-01T06:49:17;99889.97;;;17.06;74.25
81704;BME280;71117;52.352;4.808;2023-08-01T06:51:42;99899.09;;;16.95;74.71
81704;BME280;71117;52.352;4.808;2023-08-01T06:54:08;99892.75;;;17.02;74.57
81704;BME280;71117;52.352;4.808;2023-08-01T06:56:33;99907.72;;;17.06;74.81
81704;BME280;71117;52.352;4.808;2023-08-01T06:58:58;99904.03;;;17.13;75.44
81704;BME280;71117;52.352;4.808;2023-08-01T07:01:24;99911.06;;;17.15;75.41
81704;BME280;71117;52.352;4.808;2023-08-01T07:03:49;99913.56;;;17.22;74.70
81704;BME280;71117;52.352;4.808;2023-08-01T07:06:17;99919.78;;;17.24;74.52
81704;BME280;71117;52.352;4.808;2023-08-01T07:08:42;99917.06;;;17.25;74.27
81704;BME280;71117;52.352;4.808;2023-08-01T07:11:08;99908.03;;;17.31;73.15
81704;BME280;71117;52.352;4.808;2023-08-01T07:13:33;99924.09;;;17.29;73.37
81704;BME280;71117;52.352;4.808;2023-08-01T07:15:58;99919.63;;;17.30;73.20
81704;BME280;71117;52.352;4.808;2023-08-01T07:18:24;99925.13;;;17.22;73.76
81704;BME280;71117;52.352;4.808;2023-08-01T07:20:59;99916.28;;;17.20;73.08
81704;BME280;71117;52.352;4.808;2023-08-01T07:23:24;99917.31;;;17.14;74.18
81704;BME280;71117;52.352;4.808;2023-08-01T07:25:50;99925.38;;;17.11;73.73
81704;BME280;71117;52.352;4.808;2023-08-01T07:28:15;99927.06;;;17.15;73.80
81704;BME280;71117;52.352;4.808;2023-08-01T07:30:40;99918.44;;;17.04;74.58
81704;BME280;71117;52.352;4.808;2023-08-01T07:33:06;99923.56;;;17.13;74.23
81704;BME280;71117;52.352;4.808;2023-08-01T07:35:31;99927.22;;;17.09;74.14
81704;BME280;71117;52.352;4.808;2023-08-01T07:37:56;99935.94;;;17.17;74.11
81704;BME280;71117;52.352;4.808;2023-08-01T07:40:22;99926.28;;;17.12;73.89
81704;BME280;71117;52.352;4.808;2023-08-01T07:42:47;99935.63;;;17.30;74.54
81704;BME280;71117;52.352;4.808;2023-08-01T07:45:12;99934.97;;;17.20;74.13
81704;BME280;71117;52.352;4.808;2023-08-01T07:47:38;99942.53;;;17.01;75.02
81704;BME280;71117;52.352;4.808;2023-08-01T07:50:04;99952.53;;;16.91;74.91
81704;BME280;71117;52.352;4.808;2023-08-01T07:52:29;99935.66;;;16.91;75.41
81704;BME280;71117;52.352;4.808;2023-08-01T07:54:54;99954.44;;;16.86;74.95
81704;BME280;71117;52.352;4.808;2023-08-01T07:57:22;99942.16;;;16.79;75.42
81704;BME280;71117;52.352;4.808;2023-08-01T07:59:47;99949.19;;;16.82;75.85
81704;BME280;71117;52.352;4.808;2023-08-01T08:02:13;99939.25;;;16.90;74.26
81704;BME280;71117;52.352;4.808;2023-08-01T08:04:38;99945.16;;;17.03;73.38
81704;BME280;71117;52.352;4.808;2023-08-01T08:07:04;99942.50;;;17.40;72.53
81704;BME280;71117;52.352;4.808;2023-08-01T08:09:29;99951.78;;;17.59;71.87
81704;BME280;71117;52.352;4.808;2023-08-01T08:11:54;99954.44;;;17.59;70.85
81704;BME280;71117;52.352;4.808;2023-08-01T08:14:22;99965.19;;;17.21;73.08
81704;BME280;71117;52.352;4.808;2023-08-01T08:16:48;99956.91;;;16.94;73.72
81704;BME280;71117;52.352;4.808;2023-08-01T08:19:13;99955.88;;;17.01;75.13
81704;BME280;71117;52.352;4.808;2023-08-01T08:21:39;99958.09;;;17.19;74.28
81704;BME280;71117;52.352;4.808;2023-08-01T08:24:04;99958.88;;;17.25;75.72
81704;BME280;71117;52.352;4.808;2023-08-01T08:26:30;99956.16;;;17.26;74.53
81704;BME280;71117;52.352;4.808;2023-08-01T08:28:56;99970.13;;;17.37;73.01
81704;BME280;71117;52.352;4.808;2023-08-01T08:31:22;99965.69;;;17.74;72.41
81704;BME280;71117;52.352;4.808;2023-08-01T08:33:47;99964.44;;;17.87;70.93
81704;BME280;71117;52.352;4.808;2023-08-01T08:36:13;99958.56;;;17.74;71.15
81704;BME280;71117;52.352;4.808;2023-08-01T08:38:38;99960.78;;;17.55;73.28
81704;BME280;71117;52.352;4.808;2023-08-01T08:41:18;99970.38;;;17.27;75.69
81704;BME280;71117;52.352;4.808;2023-08-01T08:43:47;99971.41;;;17.21;75.13
81704;BME280;71117;52.352;4.808;2023-08-01T08:46:15;99973.00;;;17.30;74.09
81704;BME280;71117;52.352;4.808;2023-08-01T08:48:41;99979.72;;;17.46;73.72
81704;BME280;71117;52.352;4.808;2023-08-01T08:51:07;99982.06;;;17.58;71.98
81704;BME280;71117;52.352;4.808;2023-08-01T08:53:34;99984.91;;;17.88;nan
81704;BME280;71117;52.352;4.808;2023-08-01T08:56:01;100007.63;;;17.68;70.09
81704;BME280;71117;52.352;4.808;2023-08-01T08:58:31;99987.53;;;17.54;70.75
81704;BME280;71117;52.352;4.808;2023-08-01T09:00:59;99985.06;;;17.46;70.97
81704;BME280;71117;52.352;4.808;2023-08-01T09:03:25;99983.78;;;17.61;70.30
81704;BME280;71117;52.352;4.808;2023-08-01T09:05:56;99992.75;;;17.94;69.54
81704;BME280;71117;52.352;4.808;2023-08-01T09:08:27;99988.13;;;18.33;68.56
81704;BME280;71117;52.352;4.808;2023-08-01T09:10:54;99981.91;;;18.64;68.29
81704;BME280;71117;52.352;4.808;2023-08-01T09:13:20;99993.78;;;18.85;67.34
81704;BME280;71117;52.352;4.808;2023-08-01T09:15:46;99994.28;;;18.68;67.98
81704;BME280;71117;52.352;4.808;2023-08-01T09:18:11;100011.19;;;18.37;68.46
81704;BME280;71117;52.352;4.808;2023-08-01T09:20:45;100016.94;;;18.22;69.38
81704;BME280;71117;52.352;4.808;2023-08-01T09:23:10;100014.38;;;18.17;69.55
81704;BME280;71117;52.352;4.808;2023-08-01T09:25:39;100007.44;;;18.10;70.70
81704;BME280;71117;52.352;4.808;2023-08-01T09:28:22;100018.38;;;18.34;69.13
81704;BME280;71117;52.352;4.808;2023-08-01T09:30:52;100019.53;;;18.89;68.64
81704;BME280;71117;52.352;4.808;2023-08-01T09:33:20;100017.75;;;19.45;63.89
81704;BME280;71117;52.352;4.808;2023-08-01T09:35:49;100018.28;;;19.28;65.27
81704;BME280;71117;52.352;4.808;2023-08-01T09:38:15;100015.38;;;18.79;66.68
81704;BME280;71117;52.352;4.808;2023-08-01T09:40:41;100011.81;;;18.45;69.11
81704;BME280;71117;52.352;4.808;2023-08-01T09:43:07;100019.84;;;18.78;67.28
81704;BME280;71117;52.352;4.808;2023-08-01T09:45:32;100019.00;;;19.06;65.58
81704;BME280;71117;52.352;4.808;2023-08-01T09:47:59;100023.72;;;18.66;65.34
81704;BME280;71117;52.352;4.808;2023-08-01T09:50:25;100026.34;;;18.37;63.94
81704;BME280;71117;52.352;4.808;2023-08-01T09:52:51;100016.28;;;19.37;65.56
81704;BME280;71117;52.352;4.808;2023-08-01T09:55:32;100023.78;;;19.80;62.94
81704;BME280;71117;52.352;4.808;2023-08-01T09:57:59;100017.84;;;19.72;63.22
81704;BME280;71117;52.352;4.808;2023-08-01T10:00:28;100039.59;;;19.61;63.78
81704;BME280;71117;52.352;4.808;2023-08-01T10:02:58;100039.13;;;19.19;63.64
81704;BME280;71117;52.352;4.808;2023-08-01T10:05:29;100039.38;;;18.82;64.57
81704;BME280;71117;52.352;4.808;2023-08-01T10:08:00;100040.91;;;19.20;63.90
81704;BME280;71117;52.352;4.808;2023-08-01T10:10:26;100046.09;;;19.24;62.66
81704;BME280;71117;52.352;4.808;2023-08-01T10:12:52;100042.69;;;19.19;63.39
81704;BME280;71117;52.352;4.808;2023-08-01T10:15:19;100059.09;;;19.07;63.88
81704;BME280;71117;52.352;4.808;2023-08-01T10:17:44;100044.31;;;19.53;64.39
81704;BME280;71117;52.352;4.808;2023-08-01T10:20:10;100050.88;;;19.15;64.61
81704;BME280;71117;52.352;4.808;2023-08-01T10:22:37;100061.56;;;18.51;67.66
81704;BME280;71117;52.352;4.808;2023-08-01T10:25:04;100064.56;;;18.06;73.86
81704;BME280;71117;52.352;4.808;2023-08-01T10:27:30;100059.31;;;18.03;73.99
81704;BME280;71117;52.352;4.808;2023-08-01T10:30:00;100052.81;;;18.46;72.72
81704;BME280;71117;52.352;4.808;2023-08-01T10:32:37;100053.44;;;19.18;71.62
81704;BME280;71117;52.352;4.808;2023-08-01T10:35:03;100046.09;;;19.52;69.81
81704;BME280;71117;52.352;4.808;2023-08-01T10:37:42;100047.25;;;20.51;67.57
81704;BME280;71117;52.352;4.808;2023-08-01T10:40:08;100052.00;;;19.65;63.91
81704;BME280;71117;52.352;4.808;2023-08-01T10:42:42;100070.44;;;18.53;67.58
81704;BME280;71117;52.352;4.808;2023-08-01T10:45:22;100081.25;;;17.80;73.19
81704;BME280;71117;52.352;4.808;2023-08-01T10:47:49;100081.28;;;17.38;74.43
81704;BME280;71117;52.352;4.808;2023-08-01T10:50:16;100088.72;;;17.26;75.12
81704;BME280;71117;52.352;4.808;2023-08-01T10:52:42;100074.66;;;17.17;75.95
81704;BME280;71117;52.352;4.808;2023-08-01T10:55:08;100101.94;;;16.88;78.73
81704;BME280;71117;52.352;4.808;2023-08-01T10:57:47;100101.06;;;16.38;80.94
81704;BME280;71117;52.352;4.808;2023-08-01T11:00:17;100111.41;;;16.07;80.90
81704;BME280;71117;52.352;4.808;2023-08-01T11:02:49;100104.44;;;15.99;82.86
81704;BME280;71117;52.352;4.808;2023-08-01T11:05:14;100111.63;;;15.94;82.80
81704;BME280;71117;52.352;4.808;2023-08-01T11:07:40;100095.53;;;16.01;82.52
81704;BME280;71117;52.352;4.808;2023-08-01T11:12:50;100091.59;;;17.15;81.20
81704;BME280;71117;52.352;4.808;2023-08-01T11:15:15;100089.00;;;18.59;75.71
81704;BME280;71117;52.352;4.808;2023-08-01T11:17:42;100095.06;;;18.66;75.81
81704;BME280;71117;52.352;4.808;2023-08-01T11:20:10;100090.13;;;18.16;77.40
81704;BME280;71117;52.352;4.808;2023-08-01T11:22:36;100110.03;;;18.05;76.42
81704;BME280;71117;52.352;4.808;2023-08-01T11:25:03;100097.72;;;19.59;71.90
81704;BME280;71117;52.352;4.808;2023-08-01T11:27:28;100085.47;;;19.21;71.47
81704;BME280;71117;52.352;4.808;2023-08-01T11:29:54;100092.13;;;18.42;72.51
81704;BME280;71117;52.352;4.808;2023-08-01T11:32:21;100089.38;;;18.11;72.89
81704;BME280;71117;52.352;4.808;2023-08-01T11:34:47;100104.34;;;18.18;72.49
81704;BME280;71117;52.352;4.808;2023-08-01T11:37:17;100098.47;;;18.04;71.61
81704;BME280;71117;52.352;4.808;2023-08-01T11:39:43;100125.78;;;17.78;71.43
81704;BME280;71117;52.352;4.808;2023-08-01T11:42:15;100108.78;;;18.19;71.63
81704;BME280;71117;52.352;4.808;2023-08-01T11:44:40;100099.00;;;18.53;70.53
81704;BME280;71117;52.352;4.808;2023-08-01T11:47:11;100114.56;;;18.37;70.75
81704;BME280;71117;52.352;4.808;2023-08-01T11:49:37;100100.03;;;18.47;68.96
81704;BME280;71117;52.352;4.808;2023-08-01T11:52:02;100118.03;;;18.05;69.48
81704;BME280;71117;52.352;4.808;2023-08-01T11:54:28;100116.59;;;17.90;69.98
81704;BME280;71117;52.352;4.808;2023-08-01T11:57:00;100117.81;;;20.53;63.48
81704;BME280;71117;52.352;4.808;2023-08-01T11:59:26;100114.59;;;20.69;60.22
81704;BME280;71117;52.352;4.808;2023-08-01T12:01:51;100113.22;;;21.30;57.96
81704;BME280;71117;52.352;4.808;2023-08-01T12:04:27;100125.25;;;21.89;56.08
81704;BME280;71117;52.352;4.808;2023-08-01T12:06:52;100133.50;;;21.84;54.61
81704;BME280;71117;52.352;4.808;2023-08-01T12:09:19;100116.94;;;23.58;51.54
81704;BME280;71117;52.352;4.808;2023-08-01T12:11:44;100123.78;;;24.20;48.10
81704;BME280;71117;52.352;4.808;2023-08-01T12:16:38;100123.03;;;23.99;49.68
81704;BME280;71117;52.352;4.808;2023-08-01T12:19:04;100123.31;;;22.77;51.07
81704;BME280;71117;52.352;4.808;2023-08-01T12:21:31;100141.97;;;22.19;50.92
81704;BME280;71117;52.352;4.808;2023-08-01T12:23:57;100147.19;;;22.44;51.01
81704;BME280;71117;52.352;4.808;2023-08-01T12:26:23;100132.72;;;21.59;55.57
81704;BME280;71117;52.352;4.808;2023-08-01T12:28:48;100133.97;;;21.50;55.40
81704;BME280;71117;52.352;4.808;2023-08-01T12:31:21;100136.34;;;21.09;55.99
81704;BME280;71117;52.352;4.808;2023-08-01T12:33:46;100146.78;;;20.69;58.50
81704;BME280;71117;52.352;4.808;2023-08-01T12:36:13;100157.56;;;20.14;61.58
81704;BME280;71117;52.352;4.808;2023-08-01T12:38:38;100147.09;;;19.78;63.56
81704;BME280;71117;52.352;4.808;2023-08-01T12:41:04;100160.44;;;19.80;63.31
81704;BME280;71117;52.352;4.808;2023-08-01T12:43:30;100148.81;;;20.09;60.79
81704;BME280;71117;52.352;4.808;2023-08-01T12:45:55;100161.63;;;20.54;59.49
81704;BME280;71117;52.352;4.808;2023-08-01T12:48:23;100158.13;;;20.52;60.75
81704;BME280;71117;52.352;4.808;2023-08-01T12:50:48;100147.91;;;20.08;62.47
81704;BME280;71117;52.352;4.808;2023-08-01T12:53:14;100145.78;;;19.33;65.50
81704;BME280;71117;52.352;4.808;2023-08-01T12:55:43;100150.09;;;18.40;72.98
81704;BME280;71117;52.352;4.808;2023-08-01T12:58:09;100173.47;;;17.96;75.89
81704;BME280;71117;52.352;4.808;2023-08-01T13:00:34;100166.00;;;17.30;81.25